Kimmell, Indiana
Current Conditions -  °F | °C
As of 12:53 PM on Sunday 23 Nov 2014 (Local Time) from KGSH Reporting Station
Few Clouds Few Clouds  
Wind Chill: 54°   Ceiling: Unl
Heat Index: 54°   Visibility: 10mi
Dew Point: 45°   Wind: 10mph
Humidity: 72%   Direction: 160°SSE
Pressure: 29.72"   Gusts: NA
Location:  41.4°N, 85.55°W
Report Text: KGSH 231753Z AUTO 16009KT 10SM FEW080 12/07 A2972 RMK AO2 SLP065 60000 T01220072 10122 20078 58041
Loading
Personal Weather Stations






























Interactive Weather Map New forecast layout! Learn more

10-Day Weather Forecast

Advertisements
Track Severe Weather on mobile